sensor_id;sensor_type;location;lat;lon;timestamp;P1;durP1;ratioP1;P2;durP2;ratioP2
2558;SDS011;1289;53.488;10.006;2022-10-20T00:01:18;4.27;;;3.97;;
2558;SDS011;1289;53.488;10.006;2022-10-20T00:03:46;5.00;;;4.50;;
2558;SDS011;1289;53.488;10.006;2022-10-20T00:06:14;4.27;;;3.97;;
2558;SDS011;1289;53.488;10.006;2022-10-20T00:08:44;4.77;;;4.40;;
2558;SDS011;1289;53.488;10.006;2022-10-20T00:11:11;14.03;;;4.80;;
2558;SDS011;1289;53.488;10.006;2022-10-20T00:13:39;5.00;;;4.67;;
2558;SDS011;1289;53.488;10.006;2022-10-20T00:16:06;4.77;;;4.37;;
2558;SDS011;1289;53.488;10.006;2022-10-20T00:18:33;5.00;;;4.50;;
2558;SDS011;1289;53.488;10.006;2022-10-20T00:21:03;4.80;;;4.30;;
2558;SDS011;1289;53.488;10.006;2022-10-20T00:23:30;5.10;;;4.70;;
2558;SDS011;1289;53.488;10.006;2022-10-20T00:26:10;5.00;;;4.60;;
2558;SDS011;1289;53.488;10.006;2022-10-20T00:28:37;5.27;;;4.77;;
2558;SDS011;1289;53.488;10.006;2022-10-20T00:31:04;6.17;;;5.57;;
2558;SDS011;1289;53.488;10.006;2022-10-20T00:33:32;4.20;;;3.90;;
2558;SDS011;1289;53.488;10.006;2022-10-20T00:35:59;5.37;;;4.87;;
2558;SDS011;1289;53.488;10.006;2022-10-20T00:38:26;5.27;;;4.80;;
2558;SDS011;1289;53.488;10.006;2022-10-20T00:40:53;5.10;;;4.60;;
2558;SDS011;1289;53.488;10.006;2022-10-20T00:43:21;5.50;;;5.00;;
2558;SDS011;1289;53.488;10.006;2022-10-20T00:45:49;5.20;;;4.70;;
2558;SDS011;1289;53.488;10.006;2022-10-20T00:48:18;5.03;;;4.63;;
2558;SDS011;1289;53.488;10.006;2022-10-20T00:50:47;4.90;;;4.50;;
2558;SDS011;1289;53.488;10.006;2022-10-20T00:53:15;5.23;;;4.57;;
2558;SDS011;1289;53.488;10.006;2022-10-20T00:55:42;5.57;;;5.17;;
2558;SDS011;1289;53.488;10.006;2022-10-20T00:58:11;5.10;;;4.60;;
2558;SDS011;1289;53.488;10.006;2022-10-20T01:00:39;5.00;;;4.53;;
2558;SDS011;1289;53.488;10.006;2022-10-20T01:03:09;5.20;;;4.90;;
2558;SDS011;1289;53.488;10.006;2022-10-20T01:05:38;5.03;;;4.53;;
2558;SDS011;1289;53.488;10.006;2022-10-20T01:08:05;5.20;;;4.70;;
2558;SDS011;1289;53.488;10.006;2022-10-20T01:10:34;5.03;;;4.70;;
2558;SDS011;1289;53.488;10.006;2022-10-20T01:13:05;5.60;;;5.20;;
2558;SDS011;1289;53.488;10.006;2022-10-20T01:15:37;5.03;;;4.63;;
2558;SDS011;1289;53.488;10.006;2022-10-20T01:18:10;5.47;;;4.90;;
2558;SDS011;1289;53.488;10.006;2022-10-20T01:23:43;4.80;;;4.50;;
2558;SDS011;1289;53.488;10.006;2022-10-20T01:26:27;4.80;;;4.50;;
2558;SDS011;1289;53.488;10.006;2022-10-20T01:29:17;5.00;;;4.60;;
2558;SDS011;1289;53.488;10.006;2022-10-20T01:31:47;4.70;;;4.30;;
2558;SDS011;1289;53.488;10.006;2022-10-20T01:34:16;4.10;;;3.80;;
2558;SDS011;1289;53.488;10.006;2022-10-20T01:36:48;4.80;;;4.30;;
2558;SDS011;1289;53.488;10.006;2022-10-20T01:39:18;6.53;;;4.90;;
2558;SDS011;1289;53.488;10.006;2022-10-20T01:41:50;4.47;;;4.10;;
2558;SDS011;1289;53.488;10.006;2022-10-20T01:44:21;4.93;;;4.53;;
2558;SDS011;1289;53.488;10.006;2022-10-20T01:46:59;4.73;;;4.33;;
2558;SDS011;1289;53.488;10.006;2022-10-20T01:49:26;4.73;;;4.30;;
2558;SDS011;1289;53.488;10.006;2022-10-20T01:51:53;4.63;;;4.23;;
2558;SDS011;1289;53.488;10.006;2022-10-20T01:54:21;4.63;;;4.23;;
2558;SDS011;1289;53.488;10.006;2022-10-20T01:59:41;4.80;;;4.40;;
2558;SDS011;1289;53.488;10.006;2022-10-20T02:02:23;4.80;;;4.30;;
2558;SDS011;1289;53.488;10.006;2022-10-20T02:05:03;8.57;;;4.70;;
2558;SDS011;1289;53.488;10.006;2022-10-20T02:07:37;4.80;;;4.50;;
2558;SDS011;1289;53.488;10.006;2022-10-20T02:10:08;4.77;;;4.47;;
2558;SDS011;1289;53.488;10.006;2022-10-20T02:12:37;5.60;;;5.20;;
2558;SDS011;1289;53.488;10.006;2022-10-20T02:15:07;5.03;;;4.53;;
2558;SDS011;1289;53.488;10.006;2022-10-20T02:17:34;4.90;;;4.50;;
2558;SDS011;1289;53.488;10.006;2022-10-20T02:20:03;5.17;;;4.67;;
2558;SDS011;1289;53.488;10.006;2022-10-20T02:22:31;4.80;;;4.40;;
2558;SDS011;1289;53.488;10.006;2022-10-20T02:24:58;5.70;;;5.30;;
2558;SDS011;1289;53.488;10.006;2022-10-20T02:27:27;5.20;;;4.80;;
2558;SDS011;1289;53.488;10.006;2022-10-20T02:29:56;5.03;;;4.57;;
2558;SDS011;1289;53.488;10.006;2022-10-20T02:32:26;4.73;;;4.40;;
2558;SDS011;1289;53.488;10.006;2022-10-20T02:34:52;5.17;;;4.73;;
2558;SDS011;1289;53.488;10.006;2022-10-20T02:37:19;4.20;;;3.90;;
2558;SDS011;1289;53.488;10.006;2022-10-20T02:39:46;5.10;;;4.60;;
2558;SDS011;1289;53.488;10.006;2022-10-20T02:42:12;6.10;;;5.50;;
2558;SDS011;1289;53.488;10.006;2022-10-20T02:44:41;5.50;;;5.00;;
2558;SDS011;1289;53.488;10.006;2022-10-20T02:47:08;5.97;;;5.50;;
2558;SDS011;1289;53.488;10.006;2022-10-20T02:49:35;4.60;;;4.20;;
2558;SDS011;1289;53.488;10.006;2022-10-20T02:52:02;4.70;;;4.40;;
2558;SDS011;1289;53.488;10.006;2022-10-20T02:54:29;5.20;;;4.80;;
2558;SDS011;1289;53.488;10.006;2022-10-20T02:56:55;5.07;;;4.67;;
2558;SDS011;1289;53.488;10.006;2022-10-20T02:59:22;6.30;;;5.70;;
2558;SDS011;1289;53.488;10.006;2022-10-20T03:01:48;5.80;;;5.27;;
2558;SDS011;1289;53.488;10.006;2022-10-20T03:04:16;6.57;;;5.80;;
2558;SDS011;1289;53.488;10.006;2022-10-20T03:06:44;5.23;;;4.83;;
2558;SDS011;1289;53.488;10.006;2022-10-20T03:09:11;4.90;;;4.50;;
2558;SDS011;1289;53.488;10.006;2022-10-20T03:11:38;5.40;;;4.90;;
2558;SDS011;1289;53.488;10.006;2022-10-20T03:14:04;5.37;;;4.87;;
2558;SDS011;1289;53.488;10.006;2022-10-20T03:16:31;6.33;;;4.47;;
2558;SDS011;1289;53.488;10.006;2022-10-20T03:18:57;6.57;;;4.70;;
2558;SDS011;1289;53.488;10.006;2022-10-20T03:21:24;5.70;;;5.20;;
2558;SDS011;1289;53.488;10.006;2022-10-20T03:23:52;4.63;;;4.23;;
2558;SDS011;1289;53.488;10.006;2022-10-20T03:26:19;5.37;;;4.97;;
2558;SDS011;1289;53.488;10.006;2022-10-20T03:28:46;6.97;;;4.80;;
2558;SDS011;1289;53.488;10.006;2022-10-20T03:31:13;6.57;;;5.87;;
2558;SDS011;1289;53.488;10.006;2022-10-20T03:33:39;5.30;;;4.90;;
2558;SDS011;1289;53.488;10.006;2022-10-20T03:36:06;9.00;;;5.00;;
2558;SDS011;1289;53.488;10.006;2022-10-20T03:38:33;7.23;;;5.00;;
2558;SDS011;1289;53.488;10.006;2022-10-20T03:41:01;11.03;;;5.50;;
2558;SDS011;1289;53.488;10.006;2022-10-20T03:43:28;5.50;;;5.10;;
2558;SDS011;1289;53.488;10.006;2022-10-20T03:46:00;5.03;;;4.67;;
2558;SDS011;1289;53.488;10.006;2022-10-20T03:48:27;5.93;;;5.40;;
2558;SDS011;1289;53.488;10.006;2022-10-20T03:50:54;5.07;;;4.67;;
2558;SDS011;1289;53.488;10.006;2022-10-20T03:53:21;5.33;;;4.93;;
2558;SDS011;1289;53.488;10.006;2022-10-20T03:55:47;5.07;;;4.67;;
2558;SDS011;1289;53.488;10.006;2022-10-20T03:58:15;5.67;;;5.17;;
2558;SDS011;1289;53.488;10.006;2022-10-20T04:00:42;5.43;;;5.03;;
2558;SDS011;1289;53.488;10.006;2022-10-20T04:03:08;5.47;;;5.07;;
2558;SDS011;1289;53.488;10.006;2022-10-20T04:05:35;6.17;;;5.43;;
2558;SDS011;1289;53.488;10.006;2022-10-20T04:08:01;5.43;;;5.00;;
2558;SDS011;1289;53.488;10.006;2022-10-20T04:10:28;5.50;;;5.10;;
2558;SDS011;1289;53.488;10.006;2022-10-20T04:12:56;6.27;;;5.67;;
2558;SDS011;1289;53.488;10.006;2022-10-20T04:15:24;5.50;;;5.00;;
2558;SDS011;1289;53.488;10.006;2022-10-20T04:17:51;6.40;;;5.80;;
2558;SDS011;1289;53.488;10.006;2022-10-20T04:20:18;6.20;;;5.30;;
2558;SDS011;1289;53.488;10.006;2022-10-20T04:22:44;6.30;;;5.47;;
2558;SDS011;1289;53.488;10.006;2022-10-20T04:25:11;7.20;;;6.60;;
2558;SDS011;1289;53.488;10.006;2022-10-20T04:27:38;7.73;;;5.60;;
2558;SDS011;1289;53.488;10.006;2022-10-20T04:30:05;6.13;;;5.63;;
2558;SDS011;1289;53.488;10.006;2022-10-20T04:32:34;5.87;;;5.37;;
2558;SDS011;1289;53.488;10.006;2022-10-20T04:35:01;6.40;;;5.80;;
2558;SDS011;1289;53.488;10.006;2022-10-20T04:37:28;6.37;;;5.60;;
2558;SDS011;1289;53.488;10.006;2022-10-20T04:39:55;6.40;;;5.90;;
2558;SDS011;1289;53.488;10.006;2022-10-20T04:42:21;7.00;;;5.97;;
2558;SDS011;1289;53.488;10.006;2022-10-20T04:44:48;7.70;;;6.30;;
2558;SDS011;1289;53.488;10.006;2022-10-20T04:47:15;6.43;;;5.53;;
2558;SDS011;1289;53.488;10.006;2022-10-20T04:49:43;6.27;;;5.77;;
2558;SDS011;1289;53.488;10.006;2022-10-20T04:52:09;6.30;;;5.77;;
2558;SDS011;1289;53.488;10.006;2022-10-20T04:54:36;6.60;;;6.00;;
2558;SDS011;1289;53.488;10.006;2022-10-20T04:57:03;5.83;;;5.33;;
2558;SDS011;1289;53.488;10.006;2022-10-20T04:59:30;6.60;;;6.00;;
2558;SDS011;1289;53.488;10.006;2022-10-20T05:01:57;7.20;;;6.50;;
2558;SDS011;1289;53.488;10.006;2022-10-20T05:04:23;6.33;;;5.73;;
2558;SDS011;1289;53.488;10.006;2022-10-20T05:06:51;6.33;;;5.63;;
2558;SDS011;1289;53.488;10.006;2022-10-20T05:09:18;6.43;;;5.83;;
2558;SDS011;1289;53.488;10.006;2022-10-20T05:11:44;5.73;;;5.33;;
2558;SDS011;1289;53.488;10.006;2022-10-20T05:14:11;9.43;;;6.20;;
2558;SDS011;1289;53.488;10.006;2022-10-20T05:16:38;5.93;;;5.40;;
2558;SDS011;1289;53.488;10.006;2022-10-20T05:19:04;6.80;;;6.20;;
2558;SDS011;1289;53.488;10.006;2022-10-20T05:21:31;9.73;;;7.17;;
2558;SDS011;1289;53.488;10.006;2022-10-20T05:24:00;9.87;;;6.17;;
2558;SDS011;1289;53.488;10.006;2022-10-20T05:26:28;7.53;;;6.80;;
2558;SDS011;1289;53.488;10.006;2022-10-20T05:28:58;9.63;;;7.90;;
2558;SDS011;1289;53.488;10.006;2022-10-20T05:31:25;7.17;;;6.30;;
2558;SDS011;1289;53.488;10.006;2022-10-20T05:33:53;7.20;;;6.60;;
2558;SDS011;1289;53.488;10.006;2022-10-20T05:36:21;8.00;;;7.17;;
2558;SDS011;1289;53.488;10.006;2022-10-20T05:38:48;7.70;;;7.00;;
2558;SDS011;1289;53.488;10.006;2022-10-20T05:41:18;9.27;;;7.00;;
2558;SDS011;1289;53.488;10.006;2022-10-20T05:43:46;8.30;;;6.80;;
2558;SDS011;1289;53.488;10.006;2022-10-20T05:46:13;9.07;;;7.57;;
2558;SDS011;1289;53.488;10.006;2022-10-20T05:48:39;10.90;;;7.10;;
2558;SDS011;1289;53.488;10.006;2022-10-20T05:51:07;8.20;;;6.87;;
2558;SDS011;1289;53.488;10.006;2022-10-20T05:53:34;7.70;;;6.90;;
2558;SDS011;1289;53.488;10.006;2022-10-20T05:56:01;7.20;;;6.53;;
2558;SDS011;1289;53.488;10.006;2022-10-20T05:58:30;7.77;;;6.97;;
2558;SDS011;1289;53.488;10.006;2022-10-20T06:01:03;8.13;;;7.30;;
2558;SDS011;1289;53.488;10.006;2022-10-20T06:03:30;8.60;;;6.43;;
2558;SDS011;1289;53.488;10.006;2022-10-20T06:05:57;7.40;;;6.70;;
2558;SDS011;1289;53.488;10.006;2022-10-20T06:08:24;8.27;;;7.47;;
2558;SDS011;1289;53.488;10.006;2022-10-20T06:10:50;8.10;;;6.57;;
2558;SDS011;1289;53.488;10.006;2022-10-20T06:13:17;7.10;;;6.50;;
2558;SDS011;1289;53.488;10.006;2022-10-20T06:15:45;7.60;;;6.77;;
2558;SDS011;1289;53.488;10.006;2022-10-20T06:18:13;9.53;;;7.93;;
2558;SDS011;1289;53.488;10.006;2022-10-20T06:20:39;11.77;;;7.33;;
2558;SDS011;1289;53.488;10.006;2022-10-20T06:23:06;8.83;;;7.80;;
2558;SDS011;1289;53.488;10.006;2022-10-20T06:25:32;8.20;;;7.40;;
2558;SDS011;1289;53.488;10.006;2022-10-20T06:27:59;8.87;;;7.10;;
2558;SDS011;1289;53.488;10.006;2022-10-20T06:30:26;10.27;;;8.50;;
2558;SDS011;1289;53.488;10.006;2022-10-20T06:32:54;9.50;;;8.53;;
2558;SDS011;1289;53.488;10.006;2022-10-20T06:35:20;8.03;;;7.40;;
2558;SDS011;1289;53.488;10.006;2022-10-20T06:37:47;9.70;;;8.70;;
2558;SDS011;1289;53.488;10.006;2022-10-20T06:40:13;9.57;;;8.60;;
2558;SDS011;1289;53.488;10.006;2022-10-20T06:42:40;10.47;;;8.87;;
2558;SDS011;1289;53.488;10.006;2022-10-20T06:45:07;9.60;;;8.03;;
2558;SDS011;1289;53.488;10.006;2022-10-20T06:47:34;8.23;;;7.43;;
2558;SDS011;1289;53.488;10.006;2022-10-20T06:50:02;9.33;;;8.50;;
2558;SDS011;1289;53.488;10.006;2022-10-20T06:52:29;9.10;;;8.00;;
2558;SDS011;1289;53.488;10.006;2022-10-20T06:54:55;8.27;;;7.47;;
2558;SDS011;1289;53.488;10.006;2022-10-20T06:57:22;9.97;;;7.80;;
2558;SDS011;1289;53.488;10.006;2022-10-20T06:59:48;8.37;;;7.57;;
2558;SDS011;1289;53.488;10.006;2022-10-20T07:02:15;7.70;;;7.00;;
2558;SDS011;1289;53.488;10.006;2022-10-20T07:04:42;8.50;;;7.67;;
2558;SDS011;1289;53.488;10.006;2022-10-20T07:07:10;9.67;;;7.13;;
2558;SDS011;1289;53.488;10.006;2022-10-20T07:09:36;9.10;;;7.30;;
2558;SDS011;1289;53.488;10.006;2022-10-20T07:12:03;12.23;;;6.70;;
2558;SDS011;1289;53.488;10.006;2022-10-20T07:14:30;8.43;;;7.47;;
2558;SDS011;1289;53.488;10.006;2022-10-20T07:16:57;7.83;;;7.10;;
2558;SDS011;1289;53.488;10.006;2022-10-20T07:19:23;7.87;;;7.07;;
2558;SDS011;1289;53.488;10.006;2022-10-20T07:21:50;6.90;;;6.30;;
2558;SDS011;1289;53.488;10.006;2022-10-20T07:24:18;8.60;;;6.40;;
2558;SDS011;1289;53.488;10.006;2022-10-20T07:26:44;6.40;;;5.90;;
2558;SDS011;1289;53.488;10.006;2022-10-20T07:29:11;8.10;;;6.03;;
2558;SDS011;1289;53.488;10.006;2022-10-20T07:31:39;7.20;;;5.93;;
2558;SDS011;1289;53.488;10.006;2022-10-20T07:34:07;6.27;;;5.67;;
2558;SDS011;1289;53.488;10.006;2022-10-20T07:36:35;7.63;;;6.30;;
2558;SDS011;1289;53.488;10.006;2022-10-20T07:39:03;9.03;;;6.50;;
2558;SDS011;1289;53.488;10.006;2022-10-20T07:41:32;6.67;;;6.07;;
2558;SDS011;1289;53.488;10.006;2022-10-20T07:43:59;6.57;;;5.93;;
2558;SDS011;1289;53.488;10.006;2022-10-20T07:46:25;9.07;;;6.70;;
2558;SDS011;1289;53.488;10.006;2022-10-20T07:48:52;8.70;;;6.30;;
2558;SDS011;1289;53.488;10.006;2022-10-20T07:51:25;6.47;;;5.93;;
2558;SDS011;1289;53.488;10.006;2022-10-20T07:53:54;6.80;;;6.20;;
2558;SDS011;1289;53.488;10.006;2022-10-20T07:56:22;6.57;;;5.20;;
2558;SDS011;1289;53.488;10.006;2022-10-20T07:58:50;6.30;;;5.80;;
2558;SDS011;1289;53.488;10.006;2022-10-20T08:01:16;7.27;;;6.00;;
2558;SDS011;1289;53.488;10.006;2022-10-20T08:03:43;9.10;;;6.20;;
2558;SDS011;1289;53.488;10.006;2022-10-20T08:06:09;6.03;;;5.47;;
2558;SDS011;1289;53.488;10.006;2022-10-20T08:08:36;7.20;;;5.60;;
2558;SDS011;1289;53.488;10.006;2022-10-20T08:11:03;6.43;;;5.77;;
2558;SDS011;1289;53.488;10.006;2022-10-20T08:13:30;8.80;;;5.40;;
2558;SDS011;1289;53.488;10.006;2022-10-20T08:15:58;6.27;;;5.70;;
2558;SDS011;1289;53.488;10.006;2022-10-20T08:18:25;7.33;;;6.47;;
2558;SDS011;1289;53.488;10.006;2022-10-20T08:20:51;6.60;;;5.67;;
2558;SDS011;1289;53.488;10.006;2022-10-20T08:23:18;5.80;;;5.33;;
2558;SDS011;1289;53.488;10.006;2022-10-20T08:25:44;6.40;;;5.80;;
2558;SDS011;1289;53.488;10.006;2022-10-20T08:28:11;6.40;;;5.60;;
2558;SDS011;1289;53.488;10.006;2022-10-20T08:30:38;5.97;;;5.47;;
2558;SDS011;1289;53.488;10.006;2022-10-20T08:33:05;5.50;;;5.00;;
2558;SDS011;1289;53.488;10.006;2022-10-20T08:35:32;6.20;;;5.60;;
2558;SDS011;1289;53.488;10.006;2022-10-20T08:37:59;6.07;;;5.50;;
2558;SDS011;1289;53.488;10.006;2022-10-20T08:40:26;6.37;;;5.67;;
2558;SDS011;1289;53.488;10.006;2022-10-20T08:42:53;5.43;;;5.03;;
2558;SDS011;1289;53.488;10.006;2022-10-20T08:45:22;6.10;;;5.50;;
2558;SDS011;1289;53.488;10.006;2022-10-20T08:47:50;5.83;;;5.30;;
2558;SDS011;1289;53.488;10.006;2022-10-20T08:50:20;6.50;;;5.60;;
2558;SDS011;1289;53.488;10.006;2022-10-20T08:52:50;5.57;;;5.07;;
2558;SDS011;1289;53.488;10.006;2022-10-20T08:55:21;5.37;;;4.97;;
2558;SDS011;1289;53.488;10.006;2022-10-20T08:57:51;6.57;;;5.40;;
2558;SDS011;1289;53.488;10.006;2022-10-20T09:00:19;5.10;;;4.70;;
2558;SDS011;1289;53.488;10.006;2022-10-20T09:02:47;5.27;;;4.87;;
2558;SDS011;1289;53.488;10.006;2022-10-20T09:05:16;6.37;;;5.77;;
2558;SDS011;1289;53.488;10.006;2022-10-20T09:07:47;5.13;;;4.47;;
2558;SDS011;1289;53.488;10.006;2022-10-20T09:10:17;5.50;;;5.00;;
2558;SDS011;1289;53.488;10.006;2022-10-20T09:12:50;5.73;;;5.23;;
2558;SDS011;1289;53.488;10.006;2022-10-20T09:15:18;6.13;;;5.63;;
2558;SDS011;1289;53.488;10.006;2022-10-20T09:17:47;5.20;;;4.80;;
2558;SDS011;1289;53.488;10.006;2022-10-20T09:20:17;5.43;;;4.93;;
2558;SDS011;1289;53.488;10.006;2022-10-20T09:22:44;5.40;;;5.00;;
2558;SDS011;1289;53.488;10.006;2022-10-20T09:25:14;7.37;;;5.00;;
2558;SDS011;1289;53.488;10.006;2022-10-20T09:27:43;6.13;;;4.80;;
2558;SDS011;1289;53.488;10.006;2022-10-20T09:30:16;7.97;;;5.70;;
2558;SDS011;1289;53.488;10.006;2022-10-20T09:32:44;6.47;;;4.87;;
2558;SDS011;1289;53.488;10.006;2022-10-20T09:35:15;5.40;;;4.93;;
2558;SDS011;1289;53.488;10.006;2022-10-20T09:37:46;5.93;;;5.20;;
2558;SDS011;1289;53.488;10.006;2022-10-20T09:40:17;9.07;;;4.60;;
2558;SDS011;1289;53.488;10.006;2022-10-20T09:42:45;9.47;;;5.10;;
2558;SDS011;1289;53.488;10.006;2022-10-20T09:45:15;5.00;;;4.50;;
2558;SDS011;1289;53.488;10.006;2022-10-20T09:47:47;4.50;;;4.10;;
2558;SDS011;1289;53.488;10.006;2022-10-20T09:50:17;5.17;;;4.80;;
2558;SDS011;1289;53.488;10.006;2022-10-20T09:52:54;5.17;;;4.77;;
2558;SDS011;1289;53.488;10.006;2022-10-20T09:55:26;4.27;;;3.97;;
2558;SDS011;1289;53.488;10.006;2022-10-20T09:57:54;5.40;;;4.67;;
2558;SDS011;1289;53.488;10.006;2022-10-20T10:00:23;5.20;;;4.70;;
2558;SDS011;1289;53.488;10.006;2022-10-20T10:03:06;4.57;;;4.27;;
2558;SDS011;1289;53.488;10.006;2022-10-20T10:05:33;6.17;;;4.53;;
2558;SDS011;1289;53.488;10.006;2022-10-20T10:08:02;4.43;;;4.13;;
2558;SDS011;1289;53.488;10.006;2022-10-20T10:10:29;5.47;;;4.30;;
2558;SDS011;1289;53.488;10.006;2022-10-20T10:12:57;5.30;;;4.90;;
2558;SDS011;1289;53.488;10.006;2022-10-20T10:15:27;4.50;;;4.10;;
2558;SDS011;1289;53.488;10.006;2022-10-20T10:17:55;5.17;;;4.77;;
2558;SDS011;1289;53.488;10.006;2022-10-20T10:20:30;5.70;;;4.77;;
2558;SDS011;1289;53.488;10.006;2022-10-20T10:23:14;8.73;;;4.37;;
2558;SDS011;1289;53.488;10.006;2022-10-20T10:25:44;6.03;;;4.30;;
2558;SDS011;1289;53.488;10.006;2022-10-20T10:28:19;4.70;;;4.30;;
2558;SDS011;1289;53.488;10.006;2022-10-20T10:30:48;4.40;;;4.00;;
2558;SDS011;1289;53.488;10.006;2022-10-20T10:33:21;5.90;;;4.50;;
2558;SDS011;1289;53.488;10.006;2022-10-20T10:35:50;4.33;;;4.00;;
2558;SDS011;1289;53.488;10.006;2022-10-20T10:38:18;4.50;;;4.10;;
2558;SDS011;1289;53.488;10.006;2022-10-20T10:40:47;3.80;;;3.50;;
2558;SDS011;1289;53.488;10.006;2022-10-20T10:43:23;7.33;;;4.13;;
2558;SDS011;1289;53.488;10.006;2022-10-20T10:45:56;4.40;;;3.97;;
2558;SDS011;1289;53.488;10.006;2022-10-20T10:48:33;4.40;;;4.00;;
2558;SDS011;1289;53.488;10.006;2022-10-20T10:51:14;4.73;;;4.33;;
2558;SDS011;1289;53.488;10.006;2022-10-20T10:53:51;4.20;;;3.90;;
2558;SDS011;1289;53.488;10.006;2022-10-20T10:56:27;5.57;;;4.97;;
2558;SDS011;1289;53.488;10.006;2022-10-20T10:58:56;4.33;;;3.93;;
2558;SDS011;1289;53.488;10.006;2022-10-20T11:01:28;5.00;;;4.60;;
2558;SDS011;1289;53.488;10.006;2022-10-20T11:04:11;5.17;;;4.70;;
2558;SDS011;1289;53.488;10.006;2022-10-20T11:06:52;5.57;;;4.67;;
2558;SDS011;1289;53.488;10.006;2022-10-20T11:09:24;4.97;;;4.57;;
2558;SDS011;1289;53.488;10.006;2022-10-20T11:11:59;9.60;;;4.63;;
2558;SDS011;1289;53.488;10.006;2022-10-20T11:14:44;4.67;;;4.20;;
2558;SDS011;1289;53.488;10.006;2022-10-20T11:17:22;4.70;;;4.40;;
2558;SDS011;1289;53.488;10.006;2022-10-20T11:19:57;6.93;;;4.40;;
2558;SDS011;1289;53.488;10.006;2022-10-20T11:22:33;5.47;;;4.97;;
2558;SDS011;1289;53.488;10.006;2022-10-20T11:25:08;9.87;;;5.30;;
2558;SDS011;1289;53.488;10.006;2022-10-20T11:27:39;5.53;;;4.90;;
2558;SDS011;1289;53.488;10.006;2022-10-20T11:30:11;5.20;;;4.70;;
2558;SDS011;1289;53.488;10.006;2022-10-20T11:32:42;5.30;;;4.90;;
2558;SDS011;1289;53.488;10.006;2022-10-20T11:35:14;5.10;;;4.63;;
2558;SDS011;1289;53.488;10.006;2022-10-20T11:37:46;4.80;;;4.40;;
2558;SDS011;1289;53.488;10.006;2022-10-20T11:40:18;5.80;;;4.23;;
2558;SDS011;1289;53.488;10.006;2022-10-20T11:42:49;4.47;;;4.07;;
2558;SDS011;1289;53.488;10.006;2022-10-20T11:45:24;4.73;;;4.33;;
2558;SDS011;1289;53.488;10.006;2022-10-20T11:47:59;4.93;;;4.53;;
2558;SDS011;1289;53.488;10.006;2022-10-20T11:50:28;5.77;;;5.27;;
2558;SDS011;1289;53.488;10.006;2022-10-20T11:53:01;5.50;;;4.93;;
2558;SDS011;1289;53.488;10.006;2022-10-20T11:55:47;5.03;;;4.63;;
2558;SDS011;1289;53.488;10.006;2022-10-20T11:58:23;4.63;;;4.33;;
2558;SDS011;1289;53.488;10.006;2022-10-20T12:01:00;4.60;;;4.13;;
2558;SDS011;1289;53.488;10.006;2022-10-20T12:03:43;4.90;;;4.50;;
2558;SDS011;1289;53.488;10.006;2022-10-20T12:06:26;4.60;;;4.23;;
2558;SDS011;1289;53.488;10.006;2022-10-20T12:09:12;5.20;;;4.80;;
2558;SDS011;1289;53.488;10.006;2022-10-20T12:11:57;5.20;;;4.70;;
2558;SDS011;1289;53.488;10.006;2022-10-20T12:14:26;4.93;;;4.53;;
2558;SDS011;1289;53.488;10.006;2022-10-20T12:17:03;4.83;;;4.47;;
2558;SDS011;1289;53.488;10.006;2022-10-20T12:19:37;6.70;;;6.20;;
2558;SDS011;1289;53.488;10.006;2022-10-20T12:22:05;7.40;;;5.13;;
2558;SDS011;1289;53.488;10.006;2022-10-20T12:24:34;6.47;;;5.90;;
2558;SDS011;1289;53.488;10.006;2022-10-20T12:27:16;6.20;;;5.17;;
2558;SDS011;1289;53.488;10.006;2022-10-20T12:29:54;6.03;;;5.43;;
2558;SDS011;1289;53.488;10.006;2022-10-20T12:32:24;5.70;;;5.20;;
2558;SDS011;1289;53.488;10.006;2022-10-20T12:35:00;7.70;;;5.10;;
2558;SDS011;1289;53.488;10.006;2022-10-20T12:37:28;6.03;;;5.53;;
2558;SDS011;1289;53.488;10.006;2022-10-20T12:39:58;6.00;;;5.50;;
2558;SDS011;1289;53.488;10.006;2022-10-20T12:42:46;6.20;;;5.60;;
2558;SDS011;1289;53.488;10.006;2022-10-20T12:45:22;5.43;;;5.03;;
2558;SDS011;1289;53.488;10.006;2022-10-20T12:47:52;6.37;;;5.77;;
2558;SDS011;1289;53.488;10.006;2022-10-20T12:50:22;6.70;;;6.10;;
2558;SDS011;1289;53.488;10.006;2022-10-20T12:53:07;6.13;;;5.47;;
2558;SDS011;1289;53.488;10.006;2022-10-20T12:55:36;5.60;;;5.20;;
2558;SDS011;1289;53.488;10.006;2022-10-20T13:01:00;6.60;;;6.00;;
2558;SDS011;1289;53.488;10.006;2022-10-20T13:03:35;6.80;;;5.43;;
2558;SDS011;1289;53.488;10.006;2022-10-20T13:09:15;6.17;;;5.67;;
2558;SDS011;1289;53.488;10.006;2022-10-20T13:11:51;6.53;;;5.93;;
2558;SDS011;1289;53.488;10.006;2022-10-20T13:14:27;6.03;;;5.30;;
2558;SDS011;1289;53.488;10.006;2022-10-20T13:17:00;6.17;;;5.67;;
2558;SDS011;1289;53.488;10.006;2022-10-20T13:19:31;5.63;;;5.17;;
2558;SDS011;1289;53.488;10.006;2022-10-20T13:24:56;6.73;;;5.47;;
2558;SDS011;1289;53.488;10.006;2022-10-20T13:27:24;5.33;;;4.83;;
2558;SDS011;1289;53.488;10.006;2022-10-20T13:29:54;5.53;;;5.00;;
2558;SDS011;1289;53.488;10.006;2022-10-20T13:32:21;5.10;;;4.70;;
2558;SDS011;1289;53.488;10.006;2022-10-20T13:34:52;5.80;;;5.27;;
2558;SDS011;1289;53.488;10.006;2022-10-20T13:37:31;6.53;;;5.43;;
2558;SDS011;1289;53.488;10.006;2022-10-20T13:40:09;5.60;;;5.10;;
2558;SDS011;1289;53.488;10.006;2022-10-20T13:42:41;8.47;;;5.50;;
2558;SDS011;1289;53.488;10.006;2022-10-20T13:45:18;5.87;;;5.37;;
2558;SDS011;1289;53.488;10.006;2022-10-20T13:47:50;8.43;;;4.97;;
2558;SDS011;1289;53.488;10.006;2022-10-20T13:50:19;5.73;;;5.13;;
2558;SDS011;1289;53.488;10.006;2022-10-20T13:52:48;5.70;;;5.20;;
2558;SDS011;1289;53.488;10.006;2022-10-20T13:55:17;5.90;;;5.30;;
2558;SDS011;1289;53.488;10.006;2022-10-20T13:57:46;5.17;;;4.80;;
2558;SDS011;1289;53.488;10.006;2022-10-20T14:00:19;5.87;;;5.40;;
2558;SDS011;1289;53.488;10.006;2022-10-20T14:02:52;6.07;;;5.33;;
2558;SDS011;1289;53.488;10.006;2022-10-20T14:05:21;5.07;;;4.67;;
2558;SDS011;1289;53.488;10.006;2022-10-20T14:07:48;5.83;;;5.33;;
2558;SDS011;1289;53.488;10.006;2022-10-20T14:10:19;5.83;;;5.30;;
2558;SDS011;1289;53.488;10.006;2022-10-20T14:12:50;5.43;;;4.67;;
2558;SDS011;1289;53.488;10.006;2022-10-20T14:15:21;5.60;;;5.00;;
2558;SDS011;1289;53.488;10.006;2022-10-20T14:17:54;5.47;;;4.87;;
2558;SDS011;1289;53.488;10.006;2022-10-20T14:20:22;5.07;;;4.67;;
2558;SDS011;1289;53.488;10.006;2022-10-20T14:22:49;7.47;;;5.10;;
2558;SDS011;1289;53.488;10.006;2022-10-20T14:25:17;5.43;;;4.93;;
2558;SDS011;1289;53.488;10.006;2022-10-20T14:27:44;5.40;;;5.00;;
2558;SDS011;1289;53.488;10.006;2022-10-20T14:30:13;5.33;;;4.83;;
2558;SDS011;1289;53.488;10.006;2022-10-20T14:32:42;4.80;;;4.40;;
2558;SDS011;1289;53.488;10.006;2022-10-20T14:35:15;5.13;;;4.73;;
2558;SDS011;1289;53.488;10.006;2022-10-20T14:37:50;4.90;;;4.50;;
2558;SDS011;1289;53.488;10.006;2022-10-20T14:40:19;5.37;;;4.90;;
2558;SDS011;1289;53.488;10.006;2022-10-20T14:42:47;4.90;;;4.50;;
2558;SDS011;1289;53.488;10.006;2022-10-20T14:45:18;5.03;;;4.63;;
2558;SDS011;1289;53.488;10.006;2022-10-20T14:47:48;5.43;;;5.03;;
2558;SDS011;1289;53.488;10.006;2022-10-20T14:50:18;5.00;;;4.70;;
2558;SDS011;1289;53.488;10.006;2022-10-20T14:52:46;6.17;;;5.67;;
2558;SDS011;1289;53.488;10.006;2022-10-20T14:58:20;5.80;;;5.20;;
2558;SDS011;1289;53.488;10.006;2022-10-20T15:03:40;5.63;;;5.13;;
2558;SDS011;1289;53.488;10.006;2022-10-20T15:06:09;6.60;;;6.00;;
2558;SDS011;1289;53.488;10.006;2022-10-20T15:08:37;6.83;;;5.80;;
2558;SDS011;1289;53.488;10.006;2022-10-20T15:11:16;6.40;;;5.90;;
2558;SDS011;1289;53.488;10.006;2022-10-20T15:13:47;7.20;;;6.33;;
2558;SDS011;1289;53.488;10.006;2022-10-20T15:16:29;6.00;;;5.50;;
2558;SDS011;1289;53.488;10.006;2022-10-20T15:19:11;6.17;;;5.67;;
2558;SDS011;1289;53.488;10.006;2022-10-20T15:21:44;5.77;;;5.27;;
2558;SDS011;1289;53.488;10.006;2022-10-20T15:24:10;6.63;;;6.03;;
2558;SDS011;1289;53.488;10.006;2022-10-20T15:26:37;7.40;;;6.70;;
2558;SDS011;1289;53.488;10.006;2022-10-20T15:29:04;8.13;;;7.33;;
2558;SDS011;1289;53.488;10.006;2022-10-20T15:31:32;7.67;;;6.97;;
2558;SDS011;1289;53.488;10.006;2022-10-20T15:33:59;9.43;;;7.03;;
2558;SDS011;1289;53.488;10.006;2022-10-20T15:36:27;7.47;;;6.77;;